Time;durP1;ratioP1;P1;durP2;ratioP2;P2;SDS_P1;SDS_P2;PMS_P1;PMS_P2;Temp;Humidity;BMP_temperature;BMP_pressure;BME280_temperature;BME280_humidity;BME280_pressure;Samples;Min_cycle;Max_cycle;Signal;HPM_P1;HPM_P2
2023/06/03 00:01:34;;;;;;;2.40;1.63;;;11.80;71.00;;;;;;4943419;28;20228;-62
2023/06/03 00:03:59;;;;;;;3.23;1.50;;;11.70;69.60;;;;;;4945249;28;20201;-63
2023/06/03 00:06:25;;;;;;;1.30;1.20;;;11.70;70.80;;;;;;4939854;28;20724;-63
2023/06/03 00:08:50;;;;;;;1.97;1.87;;;11.60;71.70;;;;;;4939767;28;20213;-63
2023/06/03 00:11:16;;;;;;;1.27;1.17;;;11.50;70.80;;;;;;4937517;28;20213;-63
2023/06/03 00:13:42;;;;;;;4.83;1.50;;;11.60;71.50;;;;;;4942975;28;20202;-63
2023/06/03 00:16:07;;;;;;;2.43;1.50;;;11.60;71.00;;;;;;4943537;28;20612;-63
2023/06/03 00:18:33;;;;;;;2.87;1.80;;;11.50;70.80;;;;;;4943371;28;20373;-63
2023/06/03 00:21:01;;;;;;;2.67;1.50;;;11.50;70.80;;;;;;4943146;28;20205;-63
2023/06/03 00:23:27;;;;;;;4.00;1.50;;;11.60;71.40;;;;;;4939559;28;20233;-63
2023/06/03 00:25:53;;;;;;;2.13;1.30;;;11.60;70.80;;;;;;4940183;28;20275;-64
2023/06/03 00:28:18;;;;;;;1.33;1.23;;;11.50;70.80;;;;;;4928073;28;20697;-63
2023/06/03 00:30:44;;;;;;;2.80;1.67;;;11.60;71.70;;;;;;4946362;28;20710;-63
2023/06/03 00:33:10;;;;;;;2.67;1.33;;;11.60;72.10;;;;;;4952806;28;20190;-63
2023/06/03 00:35:36;;;;;;;3.07;1.83;;;11.30;71.90;;;;;;4955251;28;20406;-63
2023/06/03 00:38:02;;;;;;;4.13;1.50;;;11.40;72.30;;;;;;4943723;28;20247;-63
2023/06/03 00:40:27;;;;;;;2.80;1.33;;;11.40;76.60;;;;;;4952882;28;20247;-63
2023/06/03 00:42:53;;;;;;;3.80;2.13;;;11.50;73.70;;;;;;4956689;28;20495;-63
2023/06/03 00:45:18;;;;;;;2.17;1.70;;;11.30;72.70;;;;;;4956847;28;20259;-63
2023/06/03 00:47:44;;;;;;;2.03;1.50;;;11.30;73.70;;;;;;4957268;28;20207;-63
2023/06/03 00:50:11;;;;;;;2.23;1.30;;;11.20;73.30;;;;;;4954715;28;20201;-64
2023/06/03 00:52:38;;;;;;;4.03;1.40;;;11.20;73.70;;;;;;4954654;28;20290;-63
2023/06/03 00:55:05;;;;;;;4.10;1.50;;;11.10;74.50;;;;;;4953983;28;20264;-62
2023/06/03 00:57:30;;;;;;;893.50;408.73;;;11.20;74.20;;;;;;4956937;28;20212;-63
2023/06/03 00:59:56;;;;;;;1.30;1.20;;;11.10;74.10;;;;;;4955067;28;20621;-63
2023/06/03 01:02:23;;;;;;;1.83;1.73;;;11.00;74.40;;;;;;4956745;28;20205;-63
2023/06/03 01:04:49;;;;;;;1.83;1.50;;;11.10;75.10;;;;;;4952127;28;20206;-63
2023/06/03 01:07:26;;;;;;;4.33;1.60;;;11.10;75.10;;;;;;4956705;28;20205;-63
2023/06/03 01:10:10;;;;;;;1.63;1.40;;;11.20;74.90;;;;;;4957138;28;20283;-63
2023/06/03 01:12:58;;;;;;;3.90;2.10;;;10.90;75.60;;;;;;4956874;28;20631;-63
2023/06/03 01:15:27;;;;;;;4.77;2.50;;;11.00;74.80;;;;;;4949808;28;20330;-62
2023/06/03 01:17:57;;;;;;;4.97;2.47;;;10.90;75.10;;;;;;4945516;28;20202;-63
2023/06/03 01:20:26;;;;;;;5.77;3.43;;;10.70;77.00;;;;;;4947673;28;20215;-63
2023/06/03 01:22:56;;;;;;;6.73;3.70;;;10.80;75.90;;;;;;4947454;28;20236;-62
2023/06/03 01:25:23;;;;;;;5.27;4.50;;;10.80;75.80;;;;;;4945732;28;20248;-64
2023/06/03 01:27:49;;;;;;;6.07;3.97;;;10.50;76.70;;;;;;4954026;28;20296;-63
2023/06/03 01:30:19;;;;;;;10.03;3.83;;;10.60;76.80;;;;;;4950995;28;20303;-65
2023/06/03 01:32:47;;;;;;;4.07;3.63;;;10.70;77.00;;;;;;4951251;28;20244;-62
2023/06/03 01:35:13;;;;;;;3.80;3.47;;;10.70;76.70;;;;;;4950880;28;20244;-62
2023/06/03 01:37:40;;;;;;;4.63;4.27;;;10.60;77.50;;;;;;4950212;28;20236;-62
2023/06/03 01:40:07;;;;;;;4.83;4.23;;;10.60;78.00;;;;;;4957773;28;20201;-63
2023/06/03 01:42:33;;;;;;;3.30;3.00;;;10.70;77.90;;;;;;4960381;28;20197;-63
2023/06/03 01:45:00;;;;;;;3.97;3.50;;;10.70;77.90;;;;;;4960844;28;20200;-63
2023/06/03 01:47:26;;;;;;;5.40;2.97;;;10.60;78.20;;;;;;4958331;28;20208;-63
2023/06/03 01:49:53;;;;;;;2.90;2.70;;;10.40;78.70;;;;;;4960644;28;20494;-63
2023/06/03 01:52:18;;;;;;;3.57;3.17;;;10.70;78.70;;;;;;4960715;28;20231;-62
2023/06/03 01:54:44;;;;;;;3.07;2.77;;;10.60;78.70;;;;;;4948865;28;20198;-63
2023/06/03 01:57:10;;;;;;;2.70;2.50;;;10.60;79.20;;;;;;4950724;28;20251;-63
2023/06/03 01:59:35;;;;;;;2.97;2.73;;;10.50;78.60;;;;;;4950744;28;20576;-63
2023/06/03 02:02:01;;;;;;;2.67;2.47;;;10.40;78.60;;;;;;4948967;28;20282;-63
2023/06/03 02:04:26;;;;;;;2.47;2.13;;;10.40;79.10;;;;;;4951372;28;20621;-63
2023/06/03 02:06:55;;;;;;;3.30;2.33;;;10.20;79.00;;;;;;4950867;28;20289;-63
2023/06/03 02:09:21;;;;;;;2.50;2.30;;;10.30;79.60;;;;;;4951779;28;21003;-63
2023/06/03 02:11:47;;;;;;;2.63;2.17;;;10.40;80.40;;;;;;4949417;28;20231;-63
2023/06/03 02:14:13;;;;;;;2.00;1.70;;;10.20;80.10;;;;;;4947895;28;20220;-63
2023/06/03 02:16:40;;;;;;;1.73;1.63;;;10.30;80.80;;;;;;4950161;28;20291;-63
2023/06/03 02:19:19;;;;;;;1.97;1.47;;;10.20;80.90;;;;;;4949816;28;20620;-63
2023/06/03 02:21:46;;;;;;;3.60;2.07;;;10.10;80.30;;;;;;4943319;28;20553;-63
2023/06/03 02:24:15;;;;;;;2.37;1.53;;;10.10;80.40;;;;;;4952188;28;20225;-63
2023/06/03 02:26:52;;;;;;;2.40;1.67;;;10.10;81.40;;;;;;4948368;28;20232;-63
2023/06/03 02:29:27;;;;;;;2.00;1.33;;;10.20;81.40;;;;;;4945463;28;20236;-63
2023/06/03 02:31:57;;;;;;;1.80;1.30;;;9.80;82.80;;;;;;4954035;28;20227;-63
2023/06/03 02:34:23;;;;;;;1.43;1.33;;;9.90;83.30;;;;;;4948726;28;20292;-63
2023/06/03 02:36:49;;;;;;;2.40;1.40;;;10.00;82.60;;;;;;4958911;28;20518;-64
2023/06/03 02:39:16;;;;;;;1.90;1.10;;;10.00;82.00;;;;;;4954737;28;20209;-63
2023/06/03 02:41:43;;;;;;;1.97;1.33;;;9.90;82.60;;;;;;4959284;28;20667;-63
2023/06/03 02:44:08;;;;;;;2.87;1.33;;;9.70;83.30;;;;;;4957043;28;20558;-63
2023/06/03 02:46:34;;;;;;;2.13;1.43;;;9.80;84.00;;;;;;4936653;28;20267;-63
2023/06/03 02:49:04;;;;;;;3.27;1.73;;;9.90;83.80;;;;;;4954756;28;20541;-63
2023/06/03 02:51:29;;;;;;;1.33;1.20;;;9.90;84.20;;;;;;4958512;28;20648;-63
2023/06/03 02:53:55;;;;;;;2.13;1.20;;;9.90;84.60;;;;;;4953826;28;20201;-63
2023/06/03 02:56:22;;;;;;;1.37;0.90;;;9.90;84.20;;;;;;4955881;28;20590;-63
2023/06/03 02:58:48;;;;;;;1.33;1.00;;;10.00;83.50;;;;;;4954242;28;20279;-63
2023/06/03 03:01:14;;;;;;;2.47;1.47;;;10.10;83.70;;;;;;4959152;28;20207;-66
2023/06/03 03:03:40;;;;;;;2.57;1.30;;;10.10;82.90;;;;;;4959083;28;20257;-63
2023/06/03 03:06:06;;;;;;;1.40;1.30;;;10.10;82.90;;;;;;4956972;28;20220;-62
2023/06/03 03:08:33;;;;;;;2.03;1.47;;;9.90;84.80;;;;;;4958520;28;20889;-62
2023/06/03 03:10:58;;;;;;;2.87;1.10;;;9.90;84.70;;;;;;4954047;28;20240;-62
2023/06/03 03:13:24;;;;;;;3.03;1.00;;;9.90;85.00;;;;;;4958777;28;20602;-62
2023/06/03 03:15:50;;;;;;;2.30;1.20;;;9.70;85.60;;;;;;4954314;28;20205;-62
2023/06/03 03:18:15;;;;;;;3.10;1.20;;;9.70;88.30;;;;;;4958961;28;20291;-64
2023/06/03 03:20:41;;;;;;;4.40;1.10;;;9.80;85.80;;;;;;4956439;28;20621;-64
2023/06/03 03:23:07;;;;;;;1.20;1.10;;;9.60;86.00;;;;;;4958864;28;20225;-64
2023/06/03 03:25:36;;;;;;;1.77;1.40;;;9.60;86.00;;;;;;4957343;28;20263;-64
2023/06/03 03:28:01;;;;;;;1.87;1.30;;;9.60;86.30;;;;;;4931339;29;20894;-63
2023/06/03 03:30:27;;;;;;;2.93;1.00;;;9.60;86.30;;;;;;4951875;28;20228;-63
2023/06/03 03:32:52;;;;;;;1.60;1.30;;;9.70;86.40;;;;;;4958863;28;20635;-64
2023/06/03 03:35:21;;;;;;;2.03;1.17;;;9.80;86.10;;;;;;4958734;28;21052;-64
2023/06/03 03:37:53;;;;;;;2.60;1.10;;;9.90;86.10;;;;;;4958904;28;20237;-63
2023/06/03 03:40:20;;;;;;;5.90;1.33;;;9.90;85.50;;;;;;4958865;28;20209;-63
2023/06/03 03:42:51;;;;;;;2.23;1.37;;;9.90;85.20;;;;;;4953654;28;20210;-63
2023/06/03 03:45:19;;;;;;;4.37;1.37;;;9.90;85.50;;;;;;4957937;28;20216;-63
2023/06/03 03:47:49;;;;;;;2.57;1.00;;;10.00;84.20;;;;;;4957912;28;20581;-63
2023/06/03 03:50:38;;;;;;;2.07;1.20;;;10.10;85.60;;;;;;4952054;28;20587;-64
2023/06/03 03:53:06;;;;;;;1.53;1.27;;;9.90;85.90;;;;;;4958100;28;20213;-63
2023/06/03 03:55:33;;;;;;;6.77;4.73;;;9.80;86.30;;;;;;4950386;28;20287;-63
2023/06/03 03:58:11;;;;;;;2.03;1.57;;;9.90;86.90;;;;;;4955599;28;20232;-63
2023/06/03 04:00:36;;;;;;;1.47;1.33;;;9.90;85.90;;;;;;4954844;28;20565;-64
2023/06/03 04:03:02;;;;;;;1.30;1.30;;;9.80;85.60;;;;;;4958092;28;20235;-63
2023/06/03 04:05:28;;;;;;;1.93;1.10;;;9.90;85.30;;;;;;4958134;28;20324;-63
2023/06/03 04:07:54;;;;;;;3.27;1.10;;;10.00;81.60;;;;;;4940522;28;20708;-63
2023/06/03 04:10:21;;;;;;;1.80;0.93;;;10.20;81.80;;;;;;4957826;28;20216;-63
2023/06/03 04:12:48;;;;;;;17.40;13.70;;;10.20;80.90;;;;;;4955254;28;20259;-63
2023/06/03 04:15:16;;;;;;;1.87;1.50;;;10.10;88.40;;;;;;4952994;28;20247;-63
2023/06/03 04:17:44;;;;;;;4.20;3.40;;;10.20;82.30;;;;;;4958008;28;20207;-63
2023/06/03 04:20:49;;;;;;;1.67;1.40;;;10.40;87.90;;;;;;4955544;28;20549;-64
2023/06/03 04:23:19;;;;;;;3.30;1.07;;;10.30;80.30;;;;;;4955051;28;20233;-63
2023/06/03 04:25:46;;;;;;;2.27;1.30;;;10.30;79.60;;;;;;4957387;28;20220;-64
2023/06/03 04:28:12;;;;;;;1.37;1.10;;;10.40;82.20;;;;;;4956527;28;20219;-63
2023/06/03 04:30:38;;;;;;;2.77;1.77;;;10.30;81.30;;;;;;4956988;28;20208;-64
2023/06/03 04:33:04;;;;;;;1.90;1.30;;;10.40;84.70;;;;;;4956982;28;20308;-63
2023/06/03 04:35:29;;;;;;;2.30;1.13;;;10.30;80.80;;;;;;4948260;28;20640;-64
2023/06/03 04:37:57;;;;;;;4.40;1.10;;;10.50;82.20;;;;;;4957260;28;20742;-63
2023/06/03 04:40:23;;;;;;;1.27;1.17;;;10.50;79.70;;;;;;4955429;28;20228;-67
2023/06/03 04:42:51;;;;;;;1.87;1.50;;;10.30;81.00;;;;;;4957322;28;20210;-63
2023/06/03 04:45:16;;;;;;;1.33;1.23;;;10.40;83.20;;;;;;4950559;28;20199;-63
2023/06/03 04:47:42;;;;;;;3.13;1.07;;;10.60;82.00;;;;;;4952287;28;20205;-64
2023/06/03 04:50:09;;;;;;;2.33;1.30;;;10.50;80.60;;;;;;4955558;28;20208;-63
2023/06/03 04:52:35;;;;;;;2.27;1.23;;;10.60;80.70;;;;;;4951526;28;20217;-64
2023/06/03 04:55:01;;;;;;;1.60;1.10;;;10.50;81.60;;;;;;4939369;28;20204;-63
2023/06/03 04:57:27;;;;;;;2.63;1.60;;;10.40;80.80;;;;;;4955949;28;20213;-63
2023/06/03 04:59:52;;;;;;;2.57;1.23;;;10.50;81.20;;;;;;4956529;28;20291;-63
2023/06/03 05:02:20;;;;;;;2.73;1.20;;;10.40;81.60;;;;;;4951419;28;20213;-63
2023/06/03 05:04:46;;;;;;;2.30;1.30;;;10.30;82.10;;;;;;4950377;28;20193;-63
2023/06/03 05:07:12;;;;;;;3.50;1.67;;;10.30;82.00;;;;;;4951454;28;20235;-63
2023/06/03 05:09:37;;;;;;;2.50;1.47;;;10.50;82.10;;;;;;4953479;28;20245;-63
2023/06/03 05:12:03;;;;;;;2.20;1.53;;;10.60;82.30;;;;;;4956830;28;20226;-62
2023/06/03 05:14:29;;;;;;;3.60;1.60;;;10.40;82.40;;;;;;4957072;28;20210;-62
2023/06/03 05:16:54;;;;;;;5.20;1.30;;;10.40;82.80;;;;;;4957317;28;20316;-63
2023/06/03 05:19:20;;;;;;;3.70;1.40;;;10.60;82.80;;;;;;4950750;28;20914;-63
2023/06/03 05:21:45;;;;;;;3.30;1.40;;;10.70;82.50;;;;;;4952122;28;20252;-62
2023/06/03 05:24:11;;;;;;;2.57;1.70;;;10.60;82.40;;;;;;4957333;28;20251;-62
2023/06/03 05:26:36;;;;;;;3.13;1.97;;;10.80;83.20;;;;;;4956870;28;20210;-63
2023/06/03 05:29:02;;;;;;;1.50;1.10;;;10.80;82.00;;;;;;4957208;28;20304;-63
2023/06/03 05:31:27;;;;;;;5.93;1.63;;;10.90;80.80;;;;;;4954645;28;20710;-63
2023/06/03 05:33:53;;;;;;;1.40;1.30;;;11.00;79.40;;;;;;4952320;28;20236;-61
2023/06/03 05:36:18;;;;;;;2.63;1.13;;;11.10;81.20;;;;;;4950731;28;20229;-65
2023/06/03 05:38:44;;;;;;;2.90;1.33;;;11.20;78.30;;;;;;4952068;28;20834;-62
2023/06/03 05:41:09;;;;;;;1.90;1.43;;;11.20;78.80;;;;;;4954732;28;20209;-62
2023/06/03 05:43:35;;;;;;;2.83;1.60;;;11.20;79.80;;;;;;4952925;28;20478;-62
2023/06/03 05:46:00;;;;;;;4.90;1.80;;;11.20;78.50;;;;;;4945598;28;20259;-62
2023/06/03 05:48:26;;;;;;;3.30;1.33;;;11.30;78.10;;;;;;4947842;28;20213;-63
2023/06/03 05:50:53;;;;;;;1.70;1.40;;;11.40;79.00;;;;;;4952293;28;20221;-67
2023/06/03 05:53:20;;;;;;;1.70;1.40;;;11.40;78.00;;;;;;4944560;28;20310;-63
2023/06/03 05:55:47;;;;;;;3.23;2.07;;;11.30;77.70;;;;;;4951303;28;20206;-66
2023/06/03 05:58:13;;;;;;;1.83;1.47;;;11.50;77.20;;;;;;4923749;28;20783;-63
2023/06/03 06:00:38;;;;;;;6.13;1.87;;;11.50;78.40;;;;;;4947695;28;20219;-63
2023/06/03 06:03:04;;;;;;;3.37;1.73;;;11.60;77.70;;;;;;4950189;28;20212;-63
2023/06/03 06:05:29;;;;;;;3.20;1.60;;;11.80;78.70;;;;;;4944905;28;20353;-63
2023/06/03 06:07:56;;;;;;;2.87;1.80;;;11.90;76.90;;;;;;4947599;28;20198;-63
2023/06/03 06:10:21;;;;;;;2.00;1.67;;;11.80;76.30;;;;;;4947589;28;20202;-63
2023/06/03 06:12:47;;;;;;;2.47;1.30;;;11.80;76.40;;;;;;4946182;28;20246;-63
2023/06/03 06:15:13;;;;;;;2.30;1.63;;;11.90;76.10;;;;;;4947991;28;20397;-63
2023/06/03 06:17:38;;;;;;;1.70;1.47;;;11.80;75.70;;;;;;4951410;28;20212;-63
2023/06/03 06:20:05;;;;;;;1.87;1.67;;;11.90;76.10;;;;;;4947286;28;20206;-63
2023/06/03 06:22:31;;;;;;;5.13;1.77;;;12.00;75.70;;;;;;4951871;28;20344;-63
2023/06/03 06:24:57;;;;;;;11.37;2.17;;;12.10;75.20;;;;;;4945676;28;20213;-64
2023/06/03 06:27:22;;;;;;;4.27;1.50;;;12.10;75.60;;;;;;4942402;28;20314;-64
2023/06/03 06:29:48;;;;;;;2.40;1.80;;;12.10;76.90;;;;;;4944453;28;20285;-62
2023/06/03 06:32:22;;;;;;;4.73;2.20;;;12.20;74.80;;;;;;4943927;28;20248;-62
2023/06/03 06:34:47;;;;;;;2.07;1.77;;;12.20;74.60;;;;;;4926462;28;20296;-63
2023/06/03 06:37:13;;;;;;;2.23;1.50;;;12.20;74.40;;;;;;4940558;28;20289;-66
2023/06/03 06:39:46;;;;;;;4.17;1.40;;;12.30;75.60;;;;;;4943003;28;20206;-65
2023/06/03 06:42:13;;;;;;;3.23;1.50;;;12.40;75.30;;;;;;4943519;28;20401;-65
2023/06/03 06:44:49;;;;;;;2.47;1.37;;;12.60;74.30;;;;;;4940144;28;20213;-63
2023/06/03 06:47:25;;;;;;;3.97;1.73;;;12.60;72.90;;;;;;4941626;28;20265;-63
2023/06/03 06:49:52;;;;;;;4.03;1.60;;;12.60;74.00;;;;;;4943859;28;20213;-64
2023/06/03 06:52:27;;;;;;;4.33;1.93;;;12.60;74.80;;;;;;4921900;28;20230;-70
2023/06/03 06:54:56;;;;;;;2.43;1.37;;;12.70;75.60;;;;;;4941654;28;20301;-71
2023/06/03 06:57:27;;;;;;;3.00;1.63;;;12.80;74.70;;;;;;4925790;29;20208;-69
2023/06/03 06:59:53;;;;;;;2.93;1.47;;;12.90;72.20;;;;;;4948001;28;20225;-70
2023/06/03 07:02:20;;;;;;;3.07;1.40;;;13.10;72.60;;;;;;4949712;28;20212;-70
2023/06/03 07:04:47;;;;;;;4.67;1.57;;;13.10;72.40;;;;;;4949859;28;20218;-70
2023/06/03 07:07:13;;;;;;;5.50;1.53;;;13.10;74.10;;;;;;4949504;28;20243;-69
2023/06/03 07:09:40;;;;;;;4.13;1.50;;;13.20;73.00;;;;;;4949101;28;20221;-68
2023/06/03 07:12:06;;;;;;;3.97;1.70;;;13.30;73.20;;;;;;4947862;28;20711;-70
2023/06/03 07:14:31;;;;;;;3.37;1.90;;;13.50;71.60;;;;;;4948159;28;20202;-70
2023/06/03 07:16:57;;;;;;;2.37;1.37;;;13.50;72.40;;;;;;4949199;28;20212;-71
2023/06/03 07:19:26;;;;;;;5.40;1.93;;;13.60;71.10;;;;;;4951188;28;20197;-70
2023/06/03 07:21:52;;;;;;;3.23;1.67;;;13.50;70.90;;;;;;4948565;28;20300;-70
2023/06/03 07:24:17;;;;;;;5.37;2.03;;;13.70;69.90;;;;;;4942873;28;20273;-70
2023/06/03 07:26:43;;;;;;;1.40;1.30;;;13.80;70.70;;;;;;4949351;28;20238;-70
2023/06/03 07:29:08;;;;;;;2.00;1.40;;;13.80;72.60;;;;;;4949369;28;20810;-69
2023/06/03 07:31:35;;;;;;;1.60;1.50;;;14.00;70.50;;;;;;4950713;28;20221;-69
2023/06/03 07:34:02;;;;;;;1.73;1.30;;;14.20;69.40;;;;;;4946157;28;20387;-70
2023/06/03 07:36:28;;;;;;;2.47;1.60;;;14.30;68.00;;;;;;4949053;28;20201;-70
2023/06/03 07:39:07;;;;;;;2.93;1.63;;;14.20;68.40;;;;;;4947400;28;20569;-70
2023/06/03 07:41:36;;;;;;;4.57;1.87;;;14.30;68.70;;;;;;4948802;28;20206;-71
2023/06/03 07:44:08;;;;;;;1.73;1.23;;;14.40;68.20;;;;;;4944010;28;20271;-71
2023/06/03 07:46:43;;;;;;;2.67;1.70;;;14.30;64.70;;;;;;4946658;28;20209;-69
2023/06/03 07:49:16;;;;;;;4.00;1.60;;;14.30;65.90;;;;;;4949537;28;20205;-69
2023/06/03 07:51:47;;;;;;;4.33;1.57;;;14.40;67.50;;;;;;4944220;28;20223;-70
2023/06/03 07:54:14;;;;;;;4.23;1.70;;;14.50;64.70;;;;;;4948535;28;20206;-70
2023/06/03 07:56:40;;;;;;;4.47;1.70;;;14.40;66.00;;;;;;4948579;28;20277;-69
2023/06/03 07:59:09;;;;;;;1.83;1.40;;;14.50;65.90;;;;;;4946810;28;21070;-70
2023/06/03 08:01:35;;;;;;;4.00;1.80;;;14.60;64.70;;;;;;4940904;28;20210;-70
2023/06/03 08:04:26;;;;;;;2.60;1.10;;;14.60;64.10;;;;;;4948704;28;20210;-70
2023/06/03 08:06:52;;;;;;;3.03;1.70;;;14.60;63.00;;;;;;4944701;28;20520;-69
2023/06/03 08:09:33;;;;;;;2.67;1.70;;;14.80;63.30;;;;;;4948417;28;20687;-69
2023/06/03 08:12:01;;;;;;;3.93;1.77;;;14.90;63.40;;;;;;4946555;28;20218;-69
2023/06/03 08:14:29;;;;;;;6.93;1.97;;;15.00;63.50;;;;;;4949213;28;20213;-70
2023/06/03 08:17:01;;;;;;;5.03;1.40;;;15.00;61.70;;;;;;4948842;28;20201;-70
2023/06/03 08:19:26;;;;;;;4.70;1.50;;;15.10;61.70;;;;;;4946700;28;20205;-70
2023/06/03 08:21:52;;;;;;;3.83;1.93;;;15.20;61.80;;;;;;4946988;28;20570;-69
2023/06/03 08:24:17;;;;;;;2.40;1.60;;;15.20;62.80;;;;;;4951463;28;20319;-69
2023/06/03 08:26:45;;;;;;;2.40;1.27;;;15.30;61.70;;;;;;4954936;28;20252;-73
2023/06/03 08:29:11;;;;;;;1.83;1.30;;;15.40;59.50;;;;;;4948315;28;20205;-73
2023/06/03 08:31:36;;;;;;;1.27;1.20;;;15.40;60.60;;;;;;4951671;28;20699;-73
2023/06/03 08:34:03;;;;;;;2.87;1.20;;;15.50;58.90;;;;;;4945466;28;20261;-74
2023/06/03 08:36:29;;;;;;;4.03;1.70;;;15.50;59.60;;;;;;4947698;28;20206;-72
2023/06/03 08:38:55;;;;;;;3.63;1.40;;;15.40;60.00;;;;;;4948991;28;20531;-73
2023/06/03 08:41:26;;;;;;;3.03;1.27;;;15.50;59.60;;;;;;4948815;28;20202;-72
2023/06/03 08:44:01;;;;;;;1.53;1.03;;;15.70;58.50;;;;;;4947160;28;20202;-72
2023/06/03 08:46:33;;;;;;;5.33;1.40;;;15.80;59.00;;;;;;4947365;28;20201;-74
2023/06/03 08:49:03;;;;;;;2.93;1.23;;;15.90;58.90;;;;;;4946573;28;20210;-74
2023/06/03 08:51:36;;;;;;;2.17;1.40;;;15.80;59.10;;;;;;4948437;28;20299;-73
2023/06/03 08:54:11;;;;;;;2.83;1.67;;;16.10;59.20;;;;;;4949816;28;20296;-74
2023/06/03 08:56:41;;;;;;;2.27;1.53;;;16.20;58.10;;;;;;4944136;28;20271;-74
2023/06/03 08:59:11;;;;;;;1.70;1.00;;;16.20;56.70;;;;;;4947347;28;20234;-74
2023/06/03 09:01:37;;;;;;;2.83;1.40;;;16.40;58.20;;;;;;4949780;28;20202;-73
2023/06/03 09:04:04;;;;;;;2.97;1.63;;;16.40;57.30;;;;;;4952142;28;20201;-74
2023/06/03 09:06:30;;;;;;;1.50;1.33;;;16.20;57.00;;;;;;4947481;28;20209;-74
2023/06/03 09:08:58;;;;;;;1.83;1.30;;;16.40;57.30;;;;;;4957354;28;20201;-74
2023/06/03 09:11:25;;;;;;;1.37;1.20;;;16.40;58.20;;;;;;4952165;28;20217;-73
2023/06/03 09:13:55;;;;;;;1.40;1.30;;;16.70;56.00;;;;;;4949146;28;20229;-74
2023/06/03 09:16:21;;;;;;;3.20;1.20;;;16.80;56.80;;;;;;4955043;28;20747;-72
2023/06/03 09:18:49;;;;;;;1.90;1.30;;;16.80;55.30;;;;;;4951670;28;20209;-73
2023/06/03 09:21:15;;;;;;;1.83;1.00;;;16.70;56.80;;;;;;4934445;28;20589;-73
2023/06/03 09:23:41;;;;;;;1.57;1.47;;;16.80;55.30;;;;;;4956235;28;20349;-73
2023/06/03 09:26:07;;;;;;;1.07;0.90;;;16.90;54.80;;;;;;4951572;28;20355;-73
2023/06/03 09:28:34;;;;;;;4.43;1.60;;;17.00;53.90;;;;;;4951299;28;20665;-74
2023/06/03 09:31:00;;;;;;;2.17;1.10;;;17.00;55.10;;;;;;4955704;28;20676;-74
2023/06/03 09:33:26;;;;;;;2.83;1.33;;;17.20;53.00;;;;;;4956758;28;20212;-74
2023/06/03 09:36:11;;;;;;;2.60;0.97;;;17.30;52.80;;;;;;4954603;28;20217;-73
2023/06/03 09:38:54;;;;;;;1.47;1.37;;;17.20;53.50;;;;;;4947841;28;20205;-73
2023/06/03 09:41:23;;;;;;;3.27;1.50;;;17.10;52.70;;;;;;4955777;28;20240;-72
2023/06/03 09:43:56;;;;;;;2.13;1.37;;;17.20;52.70;;;;;;4950007;28;20210;-72
2023/06/03 09:46:22;;;;;;;2.00;1.40;;;17.40;53.00;;;;;;4952003;28;20316;-73
2023/06/03 09:48:47;;;;;;;1.57;1.20;;;17.30;54.10;;;;;;4959746;28;21032;-73
2023/06/03 09:51:13;;;;;;;3.00;1.17;;;17.50;52.10;;;;;;4941907;28;20217;-73
2023/06/03 09:53:39;;;;;;;3.87;1.53;;;17.70;51.10;;;;;;4957719;28;20286;-74
2023/06/03 09:56:25;;;;;;;2.10;1.30;;;17.80;51.60;;;;;;4955074;28;20229;-74
2023/06/03 09:58:53;;;;;;;2.63;1.10;;;17.70;50.30;;;;;;4952133;28;20199;-75
2023/06/03 10:01:33;;;;;;;2.47;1.40;;;17.90;50.00;;;;;;4951967;28;20269;-75
2023/06/03 10:04:05;;;;;;;3.60;1.17;;;17.70;50.30;;;;;;4948577;28;20326;-74
2023/06/03 10:06:32;;;;;;;3.60;1.37;;;17.80;50.50;;;;;;4952146;28;20214;-75
2023/06/03 10:09:00;;;;;;;2.07;1.17;;;17.90;49.40;;;;;;4951035;28;20208;-75
2023/06/03 10:11:25;;;;;;;2.73;1.10;;;18.00;51.00;;;;;;4946895;28;20657;-74
2023/06/03 10:14:07;;;;;;;3.30;1.37;;;18.10;50.80;;;;;;4952985;28;20297;-73
2023/06/03 10:16:32;;;;;;;4.27;1.33;;;18.20;50.50;;;;;;4950379;28;20233;-73
2023/06/03 10:18:58;;;;;;;4.80;1.10;;;18.20;48.60;;;;;;4953862;28;20672;-73
2023/06/03 10:21:24;;;;;;;1.30;1.20;;;18.10;48.30;;;;;;4948386;28;20312;-76
2023/06/03 10:23:55;;;;;;;2.53;1.47;;;18.20;48.60;;;;;;4951245;28;20254;-73
2023/06/03 10:26:22;;;;;;;1.53;1.13;;;18.50;48.90;;;;;;4950572;28;20625;-73
2023/06/03 10:28:50;;;;;;;4.00;1.43;;;18.40;47.30;;;;;;4955754;28;20250;-77
2023/06/03 10:31:16;;;;;;;2.33;1.50;;;18.30;48.50;;;;;;4943499;28;20318;-74
2023/06/03 10:33:42;;;;;;;2.57;1.27;;;18.50;48.30;;;;;;4955495;28;20302;-78
2023/06/03 10:36:09;;;;;;;5.33;1.33;;;18.50;47.20;;;;;;4969940;28;20199;-79
2023/06/03 10:38:36;;;;;;;5.13;3.50;;;18.80;48.30;;;;;;4956738;28;20194;-77
2023/06/03 10:41:02;;;;;;;4.97;1.93;;;18.90;47.10;;;;;;4938574;28;20212;-79
2023/06/03 10:43:30;;;;;;;3.97;2.23;;;19.00;48.70;;;;;;4953939;28;20203;-74
2023/06/03 10:45:58;;;;;;;1.93;1.33;;;19.00;46.90;;;;;;4950267;28;20204;-74
2023/06/03 10:48:25;;;;;;;2.87;1.50;;;19.00;47.30;;;;;;4946474;28;20696;-75
2023/06/03 10:51:03;;;;;;;9.20;1.53;;;19.30;46.80;;;;;;4948453;28;20213;-72
2023/06/03 10:53:56;;;;;;;6.43;1.57;;;19.50;48.60;;;;;;4949644;28;20226;-73
2023/06/03 10:56:45;;;;;;;3.63;1.50;;;19.50;47.20;;;;;;4936960;28;20588;-74
2023/06/03 10:59:15;;;;;;;3.93;1.23;;;19.70;47.00;;;;;;4940538;28;20227;-74
2023/06/03 11:02:03;;;;;;;2.83;1.70;;;19.50;45.70;;;;;;4941408;28;20576;-74
2023/06/03 11:04:31;;;;;;;1.40;1.30;;;19.50;47.90;;;;;;4937217;28;20201;-73
2023/06/03 11:06:57;;;;;;;3.87;1.43;;;19.70;48.50;;;;;;4945217;28;20257;-74
2023/06/03 11:09:33;;;;;;;3.80;1.40;;;19.70;47.10;;;;;;4944106;28;20232;-74
2023/06/03 11:12:03;;;;;;;3.17;1.30;;;19.70;47.00;;;;;;4940956;28;20205;-73
2023/06/03 11:14:29;;;;;;;2.17;1.20;;;20.00;48.90;;;;;;4943311;28;20207;-76
2023/06/03 11:16:58;;;;;;;2.03;1.50;;;20.20;46.70;;;;;;4942936;28;20569;-75
2023/06/03 11:19:31;;;;;;;3.50;1.73;;;20.20;47.50;;;;;;4940848;28;20297;-76
2023/06/03 11:21:57;;;;;;;3.20;1.60;;;20.40;46.40;;;;;;4942178;28;20233;-75
2023/06/03 11:24:43;;;;;;;2.10;1.60;;;20.30;45.60;;;;;;4942700;28;20256;-74
2023/06/03 11:29:46;;;;;;;1.77;1.33;;;20.90;44.80;;;;;;4943831;28;20206;-78
2023/06/03 11:32:34;;;;;;;2.43;1.10;;;20.90;45.90;;;;;;4944279;28;20229;-74
2023/06/03 11:34:59;;;;;;;3.00;1.43;;;20.50;45.90;;;;;;4943406;28;20202;-74
2023/06/03 11:37:43;;;;;;;7.23;1.83;;;20.50;44.80;;;;;;4952980;28;20228;-75
2023/06/03 11:40:14;;;;;;;3.67;1.50;;;20.90;45.40;;;;;;4949001;28;20206;-76
2023/06/03 11:42:53;;;;;;;2.80;1.70;;;20.70;44.80;;;;;;4944718;28;20206;-78
2023/06/03 11:45:18;;;;;;;4.00;1.60;;;20.80;46.10;;;;;;4957451;28;20219;-77
2023/06/03 11:47:55;;;;;;;7.93;1.20;;;21.50;45.80;;;;;;4949382;28;20202;-74
2023/06/03 11:50:23;;;;;;;1.40;1.30;;;21.30;50.80;;;;;;4942670;28;20197;-75
2023/06/03 11:52:49;;;;;;;3.20;1.50;;;21.20;45.90;;;;;;4949039;28;20217;-74
2023/06/03 11:55:22;;;;;;;1.83;1.40;;;21.00;48.70;;;;;;4949004;28;20539;-72
2023/06/03 11:57:48;;;;;;;2.40;1.30;;;20.90;51.00;;;;;;4944675;28;20277;-72
2023/06/03 12:00:15;;;;;;;2.17;1.77;;;20.90;47.00;;;;;;4947707;28;20301;-73
2023/06/03 12:02:45;;;;;;;4.43;1.33;;;21.40;46.90;;;;;;4945994;28;20230;-72
2023/06/03 12:05:11;;;;;;;3.30;1.80;;;21.50;48.60;;;;;;4948694;28;20205;-70
2023/06/03 12:07:37;;;;;;;1.40;1.00;;;21.30;44.40;;;;;;4949051;28;20264;-72
2023/06/03 12:10:02;;;;;;;2.53;1.30;;;21.50;47.30;;;;;;4948549;28;20300;-73
2023/06/03 12:12:28;;;;;;;2.60;1.40;;;21.70;48.30;;;;;;4948824;28;20298;-73
2023/06/03 12:14:53;;;;;;;2.70;1.40;;;21.90;45.80;;;;;;4948793;28;20661;-75
2023/06/03 12:17:21;;;;;;;2.27;1.70;;;22.00;45.20;;;;;;4946486;28;20316;-74
2023/06/03 12:19:48;;;;;;;3.43;1.30;;;22.00;43.00;;;;;;4949363;28;20654;-77
2023/06/03 12:22:22;;;;;;;2.00;1.37;;;21.90;45.20;;;;;;4947909;28;20206;-72
2023/06/03 12:24:48;;;;;;;4.23;1.83;;;21.90;45.10;;;;;;4945615;28;20323;-72
2023/06/03 12:27:21;;;;;;;13.77;2.13;;;21.90;50.80;;;;;;4939144;28;20205;-71
2023/06/03 12:29:53;;;;;;;2.73;1.43;;;21.70;49.20;;;;;;4942135;28;20244;-72
2023/06/03 12:32:19;;;;;;;2.53;1.43;;;21.70;48.00;;;;;;4942076;28;20221;-72
2023/06/03 12:34:45;;;;;;;2.10;1.50;;;21.80;47.40;;;;;;4948004;28;20209;-72
2023/06/03 12:37:14;;;;;;;2.13;1.30;;;21.70;50.70;;;;;;4948203;28;20201;-73
2023/06/03 12:39:43;;;;;;;1.87;1.30;;;21.80;49.10;;;;;;4947915;28;20201;-74
2023/06/03 12:42:09;;;;;;;3.33;1.60;;;22.00;46.90;;;;;;4924796;29;20233;-73
2023/06/03 12:44:50;;;;;;;2.17;1.40;;;22.10;46.60;;;;;;4940240;28;20205;-73
2023/06/03 12:47:17;;;;;;;1.80;1.37;;;22.20;46.60;;;;;;4936244;28;20282;-74
2023/06/03 12:49:43;;;;;;;3.27;1.13;;;22.30;44.40;;;;;;4939248;28;20202;-74
2023/06/03 12:52:11;;;;;;;6.57;1.50;;;22.80;47.10;;;;;;4942404;28;20224;-75
2023/06/03 12:54:40;;;;;;;2.57;1.53;;;22.90;44.10;;;;;;4944372;28;20213;-74
2023/06/03 12:57:07;;;;;;;1.17;1.07;;;22.90;43.60;;;;;;4947206;28;20481;-74